createdAt,value
2022-09-09T00:02:19.687Z,18.90
2022-09-09T00:05:31.080Z,18.90
2022-09-09T00:08:05.084Z,18.80
2022-09-09T00:10:42.825Z,18.80
2022-09-09T00:13:37.887Z,18.90
2022-09-09T00:16:23.453Z,18.80
2022-09-09T00:19:08.934Z,18.80
2022-09-09T00:21:44.510Z,18.80
2022-09-09T00:24:44.599Z,18.80
2022-09-09T00:27:48.462Z,18.70
2022-09-09T00:30:23.777Z,18.70
2022-09-09T00:32:59.181Z,18.70
2022-09-09T00:35:45.777Z,18.70
2022-09-09T00:38:24.967Z,18.70
2022-09-09T00:41:03.009Z,18.70
2022-09-09T00:43:36.164Z,18.60
2022-09-09T00:46:19.213Z,18.50
2022-09-09T00:49:20.896Z,18.60
2022-09-09T00:52:02.630Z,18.60
2022-09-09T00:55:14.497Z,18.60
2022-09-09T00:57:42.539Z,18.60
2022-09-09T01:00:28.386Z,18.50
2022-09-09T01:03:37.134Z,18.50
2022-09-09T01:06:17.753Z,18.50
2022-09-09T01:08:52.928Z,18.50
2022-09-09T01:11:36.948Z,18.50
2022-09-09T01:14:19.163Z,18.50
2022-09-09T01:16:48.141Z,18.50
2022-09-09T01:19:36.624Z,18.40
2022-09-09T01:22:22.754Z,18.40
2022-09-09T01:25:20.073Z,18.40
2022-09-09T01:27:50.743Z,18.40
2022-09-09T01:30:19.302Z,18.40
2022-09-09T01:32:50.862Z,18.40
2022-09-09T01:35:51.840Z,18.40
2022-09-09T01:38:19.496Z,18.40
2022-09-09T01:40:46.491Z,18.30
2022-09-09T01:43:14.032Z,18.30
2022-09-09T01:45:43.569Z,18.30
2022-09-09T01:48:10.546Z,18.30
2022-09-09T01:50:37.279Z,18.30
2022-09-09T01:53:04.845Z,18.30
2022-09-09T01:55:41.129Z,18.30
2022-09-09T01:58:34.960Z,18.30
2022-09-09T02:01:48.084Z,18.20
2022-09-09T02:04:42.005Z,18.20
2022-09-09T02:07:28.074Z,18.20
2022-09-09T02:10:09.871Z,18.20
2022-09-09T02:12:42.601Z,18.20
2022-09-09T02:15:37.298Z,18.10
2022-09-09T02:18:09.817Z,18.10
2022-09-09T02:20:39.313Z,18.10
2022-09-09T02:23:09.638Z,18.10
2022-09-09T02:25:39.771Z,18.10
2022-09-09T02:28:12.037Z,18.10
2022-09-09T02:30:42.429Z,18.10
2022-09-09T02:33:13.517Z,18.10
2022-09-09T02:35:44.123Z,18.10
2022-09-09T02:38:16.203Z,18.10
2022-09-09T02:40:42.975Z,18.00
2022-09-09T02:43:09.863Z,18.00
2022-09-09T02:46:29.811Z,18.00
2022-09-09T02:49:07.168Z,18.00
2022-09-09T02:51:42.031Z,18.00
2022-09-09T02:54:32.199Z,18.00
2022-09-09T02:57:11.365Z,18.00
2022-09-09T02:59:39.565Z,17.90
2022-09-09T03:02:06.970Z,17.90
2022-09-09T03:04:34.059Z,18.00
2022-09-09T03:07:01.634Z,17.90
2022-09-09T03:09:28.499Z,17.90
2022-09-09T03:11:56.068Z,17.90
2022-09-09T03:14:26.115Z,17.90
2022-09-09T03:16:54.237Z,17.90
2022-09-09T03:19:22.042Z,17.80
2022-09-09T03:21:49.142Z,17.80
2022-09-09T03:24:16.276Z,17.80
2022-09-09T03:26:45.718Z,17.80
2022-09-09T03:29:13.655Z,17.80
2022-09-09T03:31:41.100Z,17.80
2022-09-09T03:34:08.165Z,17.80
2022-09-09T03:36:35.072Z,17.80
2022-09-09T03:39:03.961Z,17.80
2022-09-09T03:41:31.579Z,17.80
2022-09-09T03:43:58.311Z,17.70
2022-09-09T03:46:27.094Z,17.80
2022-09-09T03:48:54.015Z,17.80
2022-09-09T03:51:22.183Z,17.80
2022-09-09T03:53:48.960Z,17.70
2022-09-09T03:56:15.767Z,17.70
2022-09-09T03:58:42.560Z,17.70
2022-09-09T04:01:14.849Z,17.60
2022-09-09T04:03:42.110Z,17.70
2022-09-09T04:06:12.743Z,17.70
2022-09-09T04:08:40.285Z,17.60
2022-09-09T04:11:08.253Z,17.60
2022-09-09T04:13:38.555Z,17.60
2022-09-09T04:16:06.019Z,17.60
2022-09-09T04:18:33.094Z,17.60
2022-09-09T04:20:59.912Z,17.60
2022-09-09T04:23:30.326Z,17.60
2022-09-09T04:25:59.094Z,17.60
2022-09-09T04:28:30.127Z,17.40
2022-09-09T04:31:00.578Z,17.50
2022-09-09T04:33:27.805Z,17.40
2022-09-09T04:35:54.720Z,17.50
2022-09-09T04:38:23.927Z,17.50
2022-09-09T04:40:52.856Z,17.50
2022-09-09T04:43:19.972Z,17.50
2022-09-09T04:45:50.161Z,17.50
2022-09-09T04:48:17.147Z,17.50
2022-09-09T04:50:44.145Z,17.50
2022-09-09T04:53:11.138Z,17.50
2022-09-09T04:55:37.862Z,17.50
2022-09-09T04:58:09.540Z,17.50
2022-09-09T05:00:37.148Z,17.50
2022-09-09T05:03:06.599Z,17.50
2022-09-09T05:05:37.678Z,17.50
2022-09-09T05:08:06.823Z,17.50
2022-09-09T05:10:35.408Z,17.50
2022-09-09T05:13:03.431Z,17.50
2022-09-09T05:15:30.287Z,17.60
2022-09-09T05:18:01.828Z,17.60
2022-09-09T05:20:29.388Z,17.60
2022-09-09T05:22:57.718Z,17.60
2022-09-09T05:25:26.964Z,17.60
2022-09-09T05:27:54.829Z,17.70
2022-09-09T05:30:24.186Z,17.70
2022-09-09T05:32:51.249Z,17.70
2022-09-09T05:35:20.062Z,17.70
2022-09-09T05:37:47.064Z,17.80
2022-09-09T05:40:13.973Z,17.80
2022-09-09T05:42:41.615Z,17.90
2022-09-09T05:45:10.435Z,17.90
2022-09-09T05:47:38.310Z,17.80
2022-09-09T05:50:05.938Z,18.00
2022-09-09T05:52:33.654Z,18.10
2022-09-09T05:55:00.673Z,18.10
2022-09-09T05:57:27.729Z,18.10
2022-09-09T05:59:54.662Z,18.20
2022-09-09T06:02:21.720Z,18.20
2022-09-09T06:04:48.621Z,18.20
2022-09-09T06:07:15.593Z,18.30
2022-09-09T06:09:42.469Z,18.50
2022-09-09T06:12:09.965Z,18.50
2022-09-09T06:14:37.856Z,18.50
2022-09-09T06:17:05.047Z,18.60
2022-09-09T06:19:31.986Z,18.70
2022-09-09T06:21:59.512Z,18.70
2022-09-09T06:24:26.328Z,18.70
2022-09-09T06:26:53.060Z,18.90
2022-09-09T06:29:19.791Z,18.90
2022-09-09T06:31:46.570Z,19.00
2022-09-09T06:34:13.822Z,18.80
2022-09-09T06:36:40.905Z,19.10
2022-09-09T06:39:14.656Z,19.20
2022-09-09T06:41:43.546Z,19.20
2022-09-09T06:44:12.740Z,19.30
2022-09-09T06:46:40.661Z,19.30
2022-09-09T06:49:10.290Z,19.40
2022-09-09T06:51:43.859Z,19.40
2022-09-09T06:54:12.336Z,19.50
2022-09-09T06:56:43.892Z,19.50
2022-09-09T06:59:13.066Z,19.60
2022-09-09T07:01:54.848Z,19.70
2022-09-09T07:04:22.484Z,19.70
2022-09-09T07:06:49.193Z,19.80
2022-09-09T07:09:17.511Z,19.80
2022-09-09T07:11:55.031Z,20.00
2022-09-09T07:14:23.610Z,20.10
2022-09-09T07:16:50.346Z,20.00
2022-09-09T07:19:17.497Z,20.20
2022-09-09T07:21:44.549Z,20.30
2022-09-09T07:24:13.729Z,20.30
2022-09-09T07:26:41.404Z,20.40
2022-09-09T07:29:09.713Z,20.50
2022-09-09T07:31:40.864Z,20.60
2022-09-09T07:34:08.654Z,20.70
2022-09-09T07:36:39.525Z,20.70
2022-09-09T07:39:14.122Z,20.80
2022-09-09T07:41:47.296Z,20.90
2022-09-09T07:44:18.261Z,20.90
2022-09-09T07:46:46.586Z,21.00
2022-09-09T07:49:15.058Z,21.10
2022-09-09T07:51:46.522Z,21.20
2022-09-09T07:54:16.184Z,21.20
2022-09-09T07:56:43.569Z,21.30
2022-09-09T07:59:11.297Z,21.40
2022-09-09T08:01:43.226Z,21.60
2022-09-09T08:04:18.013Z,21.60
2022-09-09T08:06:53.844Z,21.70
2022-09-09T08:09:21.817Z,21.80
2022-09-09T08:11:49.285Z,21.90
2022-09-09T08:14:16.203Z,22.00
2022-09-09T08:16:47.826Z,22.10
2022-09-09T08:19:16.138Z,22.50
2022-09-09T08:21:44.062Z,22.20
2022-09-09T08:24:12.953Z,22.30
2022-09-09T08:26:43.379Z,22.30
2022-09-09T08:29:13.150Z,22.20
2022-09-09T08:31:49.325Z,22.40
2022-09-09T08:34:16.470Z,22.40
2022-09-09T08:36:46.078Z,22.30
2022-09-09T08:39:16.230Z,22.30
2022-09-09T08:42:03.650Z,22.30
2022-09-09T08:44:50.519Z,22.30
2022-09-09T08:47:35.960Z,22.30
2022-09-09T08:50:39.613Z,22.30
2022-09-09T08:53:09.251Z,22.30
2022-09-09T08:55:46.546Z,22.30
2022-09-09T08:58:17.816Z,22.30
2022-09-09T09:01:08.057Z,22.30
2022-09-09T09:04:03.629Z,22.40
2022-09-09T09:06:37.339Z,22.40
2022-09-09T09:09:23.721Z,22.50
2022-09-09T09:12:04.797Z,22.50
2022-09-09T09:14:36.716Z,22.60
2022-09-09T09:17:21.687Z,22.70
2022-09-09T09:19:50.734Z,22.80
2022-09-09T09:22:35.203Z,22.90
2022-09-09T09:25:18.076Z,23.10
2022-09-09T09:28:01.598Z,23.20
2022-09-09T09:30:42.564Z,23.40
2022-09-09T09:33:23.999Z,23.60
2022-09-09T09:35:57.617Z,23.70
2022-09-09T09:41:15.393Z,24.10
2022-09-09T09:43:45.553Z,24.20
2022-09-09T09:46:25.280Z,24.30
2022-09-09T09:49:11.181Z,24.40
2022-09-09T09:51:38.380Z,24.40
2022-09-09T09:54:14.556Z,24.50
2022-09-09T09:56:42.577Z,24.50
2022-09-09T09:59:39.274Z,24.50
2022-09-09T10:02:19.009Z,24.50
2022-09-09T10:04:46.876Z,24.50
2022-09-09T10:07:22.670Z,24.50
2022-09-09T10:09:55.818Z,24.50
2022-09-09T10:12:30.954Z,24.50
2022-09-09T10:15:28.360Z,24.50
2022-09-09T10:18:10.311Z,24.50
2022-09-09T10:21:10.024Z,24.50
2022-09-09T10:23:50.588Z,24.50
2022-09-09T10:26:51.916Z,24.50
2022-09-09T10:29:48.814Z,24.50
2022-09-09T10:32:45.862Z,24.40
2022-09-09T10:36:09.509Z,24.50
2022-09-09T10:38:44.561Z,24.50
2022-09-09T10:41:24.194Z,24.50
2022-09-09T10:44:14.976Z,24.60
2022-09-09T10:46:47.860Z,24.60
2022-09-09T10:49:53.728Z,24.60
2022-09-09T10:52:43.714Z,24.60
2022-09-09T10:55:20.711Z,24.60
2022-09-09T10:57:53.145Z,24.60
2022-09-09T11:00:29.351Z,24.70
2022-09-09T11:03:03.671Z,24.70
2022-09-09T11:05:50.588Z,24.70
2022-09-09T11:08:25.463Z,24.80
2022-09-09T11:11:27.195Z,24.90
2022-09-09T11:13:55.253Z,24.90
2022-09-09T11:16:37.580Z,25.00
2022-09-09T11:19:25.206Z,25.10
2022-09-09T11:21:55.321Z,25.10
2022-09-09T11:24:41.594Z,25.20
2022-09-09T11:27:27.238Z,25.20
2022-09-09T11:30:31.981Z,25.30
2022-09-09T11:33:27.462Z,25.30
2022-09-09T11:36:17.656Z,25.40
2022-09-09T11:38:52.518Z,25.40
2022-09-09T11:41:22.188Z,25.40
2022-09-09T11:43:53.906Z,25.60
2022-09-09T11:46:37.421Z,25.50
2022-09-09T11:49:08.174Z,25.60
2022-09-09T11:51:36.343Z,25.60
2022-09-09T11:54:33.674Z,25.70
2022-09-09T11:57:00.778Z,25.70
2022-09-09T11:59:34.568Z,25.00
2022-09-09T12:02:25.781Z,25.80
2022-09-09T12:05:01.711Z,25.90
2022-09-09T12:07:33.887Z,25.80
2022-09-09T12:10:08.033Z,25.90
2022-09-09T12:12:43.822Z,25.90
2022-09-09T12:15:10.859Z,25.90
2022-09-09T12:17:53.170Z,26.00
2022-09-09T12:21:19.573Z,26.00
2022-09-09T12:24:10.004Z,26.10
2022-09-09T12:26:54.658Z,26.20
2022-09-09T12:29:58.843Z,26.20
2022-09-09T12:32:27.833Z,26.20
2022-09-09T12:35:14.029Z,26.20
2022-09-09T12:37:59.452Z,26.20
2022-09-09T12:40:36.396Z,26.20
2022-09-09T12:43:25.250Z,26.20
2022-09-09T12:46:09.890Z,26.20
2022-09-09T12:48:46.611Z,26.10
2022-09-09T12:51:31.682Z,26.10
2022-09-09T12:54:00.474Z,26.10
2022-09-09T12:56:31.677Z,26.10
2022-09-09T12:59:00.141Z,26.00
2022-09-09T13:01:31.937Z,26.10
2022-09-09T13:03:59.454Z,26.10
2022-09-09T13:06:33.716Z,26.10
2022-09-09T13:09:04.650Z,26.20
2022-09-09T13:11:44.796Z,26.20
2022-09-09T13:14:21.923Z,26.30
2022-09-09T13:17:07.794Z,26.30
2022-09-09T13:19:39.465Z,26.40
2022-09-09T13:22:39.796Z,26.40
2022-09-09T13:25:29.815Z,26.50
2022-09-09T13:28:04.619Z,26.50
2022-09-09T13:30:37.890Z,26.60
2022-09-09T13:33:29.818Z,26.60
2022-09-09T13:36:10.137Z,26.70
2022-09-09T13:38:53.507Z,26.70
2022-09-09T13:41:35.818Z,26.70
2022-09-09T13:44:05.553Z,26.80
2022-09-09T13:46:41.581Z,26.80
2022-09-09T13:49:10.002Z,26.80
2022-09-09T13:51:47.747Z,26.90
2022-09-09T13:54:18.350Z,27.00
2022-09-09T13:56:46.649Z,27.00
2022-09-09T13:59:17.137Z,27.10
2022-09-09T14:01:43.984Z,27.20
2022-09-09T14:04:11.625Z,27.20
2022-09-09T14:06:40.265Z,27.30
2022-09-09T14:09:12.910Z,27.30
2022-09-09T14:11:39.744Z,27.40
2022-09-09T14:14:06.501Z,27.40
2022-09-09T14:16:33.763Z,27.40
2022-09-09T14:19:00.961Z,27.40
2022-09-09T14:21:28.509Z,27.40
2022-09-09T14:23:55.908Z,27.40
2022-09-09T14:26:24.446Z,27.30
2022-09-09T14:28:55.258Z,27.40
2022-09-09T14:31:25.389Z,27.30
2022-09-09T14:33:52.539Z,27.40
2022-09-09T14:36:19.692Z,27.50
2022-09-09T14:38:46.585Z,27.50
2022-09-09T14:41:18.279Z,27.50
2022-09-09T14:43:46.136Z,27.60
2022-09-09T14:46:17.502Z,27.60
2022-09-09T14:48:46.101Z,27.60
2022-09-09T14:51:25.539Z,27.70
2022-09-09T14:53:54.434Z,27.70
2022-09-09T14:56:24.039Z,27.60
2022-09-09T14:58:52.024Z,27.50
2022-09-09T15:01:21.573Z,27.50
2022-09-09T15:04:04.808Z,27.50
2022-09-09T15:06:35.136Z,27.30
2022-09-09T15:09:02.100Z,27.20
2022-09-09T15:11:35.174Z,27.10
2022-09-09T15:14:02.271Z,27.10
2022-09-09T15:16:30.030Z,27.10
2022-09-09T15:18:59.727Z,27.00
2022-09-09T15:21:31.496Z,27.00
2022-09-09T15:24:00.061Z,26.90
2022-09-09T15:26:28.197Z,26.80
2022-09-09T15:28:55.096Z,26.80
2022-09-09T15:31:25.328Z,26.90
2022-09-09T15:34:03.837Z,26.80
2022-09-09T15:36:40.431Z,26.90
2022-09-09T15:39:13.537Z,26.90
2022-09-09T15:41:41.284Z,27.00
2022-09-09T15:44:09.185Z,27.00
2022-09-09T15:47:02.121Z,27.00
2022-09-09T15:49:28.826Z,26.90
2022-09-09T15:51:59.314Z,26.90
2022-09-09T15:54:27.143Z,26.80
2022-09-09T15:56:58.066Z,26.80
2022-09-09T15:59:28.235Z,26.80
2022-09-09T16:01:56.104Z,26.80
2022-09-09T16:04:25.362Z,26.70
2022-09-09T16:06:59.657Z,26.60
2022-09-09T16:09:28.525Z,26.60
2022-09-09T16:11:59.953Z,26.50
2022-09-09T16:14:27.323Z,26.40
2022-09-09T16:16:54.335Z,26.40
2022-09-09T16:19:21.598Z,26.30
2022-09-09T16:21:50.377Z,26.30
2022-09-09T16:24:20.487Z,26.30
2022-09-09T16:26:53.262Z,26.20
2022-09-09T16:29:23.289Z,26.20
2022-09-09T16:31:51.601Z,26.20
2022-09-09T16:34:19.754Z,26.20
2022-09-09T16:36:49.361Z,26.20
2022-09-09T16:39:19.735Z,26.10
2022-09-09T16:41:48.538Z,26.10
2022-09-09T16:44:19.228Z,26.00
2022-09-09T16:46:49.721Z,25.90
2022-09-09T16:49:16.915Z,25.90
2022-09-09T16:51:50.245Z,25.90
2022-09-09T16:54:18.154Z,25.80
2022-09-09T16:56:47.847Z,25.70
2022-09-09T16:59:20.693Z,25.70
2022-09-09T17:01:51.241Z,25.60
2022-09-09T17:04:27.272Z,25.60
2022-09-09T17:06:56.778Z,25.50
2022-09-09T17:09:29.707Z,25.40
2022-09-09T17:11:56.573Z,25.30
2022-09-09T17:14:24.832Z,25.30
2022-09-09T17:16:52.747Z,25.20
2022-09-09T17:19:19.644Z,25.10
2022-09-09T17:22:22.179Z,25.10
2022-09-09T17:24:35.536Z,25.00
2022-09-09T17:27:03.172Z,24.90
2022-09-09T17:29:29.907Z,24.80
2022-09-09T17:31:57.055Z,24.80
2022-09-09T17:34:25.121Z,24.70
2022-09-09T17:36:51.880Z,24.60
2022-09-09T17:39:18.640Z,24.60
2022-09-09T17:41:46.374Z,24.50
2022-09-09T17:44:13.170Z,24.40
2022-09-09T17:46:43.577Z,24.30
2022-09-09T17:49:14.019Z,24.10
2022-09-09T17:51:42.783Z,24.10
2022-09-09T17:54:14.975Z,24.00
2022-09-09T17:56:43.003Z,23.80
2022-09-09T17:59:13.296Z,23.90
2022-09-09T18:01:44.887Z,23.80
2022-09-09T18:04:14.261Z,23.60
2022-09-09T18:06:47.734Z,23.60
2022-09-09T18:09:21.808Z,23.50
2022-09-09T18:11:54.327Z,23.40
2022-09-09T18:14:27.149Z,23.30
2022-09-09T18:16:55.113Z,23.20
2022-09-09T18:19:26.960Z,23.10
2022-09-09T18:21:56.386Z,23.00
2022-09-09T18:24:26.718Z,22.90
2022-09-09T18:26:53.517Z,22.80
2022-09-09T18:29:25.255Z,22.80
2022-09-09T18:31:54.920Z,22.70
2022-09-09T18:34:23.157Z,22.60
2022-09-09T18:36:53.682Z,22.60
2022-09-09T18:39:24.871Z,22.50
2022-09-09T18:41:55.427Z,22.40
2022-09-09T18:44:26.671Z,22.30
2022-09-09T18:46:54.481Z,22.20
2022-09-09T18:49:24.437Z,22.20
2022-09-09T18:51:51.511Z,22.10
2022-09-09T18:54:23.543Z,22.00
2022-09-09T18:56:51.364Z,22.10
2022-09-09T18:59:21.166Z,22.00
2022-09-09T19:01:51.481Z,22.00
2022-09-09T19:04:21.827Z,21.80
2022-09-09T19:06:51.648Z,21.80
2022-09-09T19:09:19.235Z,21.70
2022-09-09T19:11:46.891Z,21.70
2022-09-09T19:14:17.185Z,21.60
2022-09-09T19:16:45.486Z,21.60
2022-09-09T19:19:21.024Z,21.50
2022-09-09T19:21:48.068Z,21.40
2022-09-09T19:24:21.818Z,21.40
2022-09-09T19:26:53.675Z,21.30
2022-09-09T19:29:30.264Z,21.30
2022-09-09T19:34:46.607Z,21.20
2022-09-09T19:37:18.118Z,21.10
2022-09-09T19:39:45.991Z,21.10
2022-09-09T19:42:12.897Z,21.00
2022-09-09T19:44:39.699Z,21.00
2022-09-09T19:47:07.252Z,20.90
2022-09-09T19:49:35.188Z,20.90
2022-09-09T19:52:02.400Z,20.80
2022-09-09T19:54:29.147Z,20.80
2022-09-09T19:56:55.893Z,20.80
2022-09-09T19:59:22.744Z,20.80
2022-09-09T20:01:49.574Z,20.80
2022-09-09T20:04:17.794Z,20.70
2022-09-09T20:06:45.637Z,20.70
2022-09-09T20:09:16.985Z,20.60
2022-09-09T20:11:47.836Z,20.60
2022-09-09T20:14:15.300Z,20.60
2022-09-09T20:16:42.798Z,20.60
2022-09-09T20:19:13.120Z,20.50
2022-09-09T20:21:48.512Z,20.50
2022-09-09T20:24:19.798Z,20.50
2022-09-09T20:26:48.303Z,20.50
2022-09-09T20:29:18.795Z,20.40
2022-09-09T20:31:47.112Z,20.40
2022-09-09T20:34:22.804Z,20.40
2022-09-09T20:36:50.908Z,20.40
2022-09-09T20:39:20.485Z,20.30
2022-09-09T20:41:47.824Z,20.30
2022-09-09T20:44:21.685Z,20.30
2022-09-09T20:47:04.172Z,20.30
2022-09-09T20:49:30.950Z,20.20
2022-09-09T20:51:57.719Z,20.20
2022-09-09T20:54:30.150Z,20.20
2022-09-09T20:56:58.067Z,20.20
2022-09-09T20:59:30.902Z,20.20
2022-09-09T21:01:58.520Z,20.10
2022-09-09T21:04:26.084Z,20.00
2022-09-09T21:06:53.067Z,20.10
2022-09-09T21:09:22.645Z,20.00
2022-09-09T21:11:49.427Z,20.00
2022-09-09T21:14:16.174Z,20.00
2022-09-09T21:16:43.187Z,19.90
2022-09-09T21:19:10.085Z,19.90
2022-09-09T21:21:37.239Z,19.90
2022-09-09T21:24:04.649Z,19.90
2022-09-09T21:26:31.561Z,19.90
2022-09-09T21:28:58.355Z,19.90
2022-09-09T21:31:28.352Z,19.90
2022-09-09T21:33:58.477Z,19.80
2022-09-09T21:36:28.209Z,19.80
2022-09-09T21:38:55.682Z,19.80
2022-09-09T21:41:22.429Z,19.80
2022-09-09T21:43:54.248Z,19.80
2022-09-09T21:46:23.318Z,19.80
2022-09-09T21:48:50.737Z,19.80
2022-09-09T21:51:18.188Z,19.80
2022-09-09T21:53:45.086Z,19.80
2022-09-09T21:56:18.905Z,19.60
2022-09-09T21:58:47.149Z,19.70
2022-09-09T22:01:17.311Z,19.70
2022-09-09T22:03:45.321Z,19.70
2022-09-09T22:06:16.665Z,19.70
2022-09-09T22:08:44.991Z,19.70
2022-09-09T22:11:18.879Z,19.70
2022-09-09T22:13:48.945Z,19.70
2022-09-09T22:16:19.428Z,19.60
2022-09-09T22:18:52.811Z,19.60
2022-09-09T22:21:20.257Z,19.60
2022-09-09T22:24:00.530Z,19.60
2022-09-09T22:26:30.570Z,19.60
2022-09-09T22:28:58.177Z,19.50
2022-09-09T22:31:27.904Z,19.50
2022-09-09T22:33:54.944Z,19.50
2022-09-09T22:36:22.834Z,19.50
2022-09-09T22:38:51.730Z,19.50
2022-09-09T22:41:19.331Z,19.50
2022-09-09T22:43:47.305Z,19.40
2022-09-09T22:46:14.765Z,19.40
2022-09-09T22:48:42.057Z,19.40
2022-09-09T22:51:12.958Z,19.40
2022-09-09T22:53:41.582Z,19.30
2022-09-09T22:56:15.665Z,19.40
2022-09-09T22:58:42.566Z,19.30
2022-09-09T23:01:15.352Z,19.20
2022-09-09T23:03:45.891Z,19.20
2022-09-09T23:06:27.906Z,19.20
2022-09-09T23:08:58.789Z,19.10
2022-09-09T23:11:33.244Z,19.10
2022-09-09T23:14:02.720Z,19.10
2022-09-09T23:16:44.229Z,19.10
2022-09-09T23:19:15.834Z,19.00
2022-09-09T23:21:45.834Z,19.10
2022-09-09T23:24:16.063Z,19.10
2022-09-09T23:26:45.551Z,19.10
2022-09-09T23:29:14.618Z,19.10
2022-09-09T23:31:45.951Z,18.90
2022-09-09T23:34:13.354Z,19.00
2022-09-09T23:36:41.365Z,18.90
2022-09-09T23:39:11.261Z,19.00
2022-09-09T23:41:38.112Z,19.00
2022-09-09T23:44:05.905Z,19.00
2022-09-09T23:46:34.755Z,18.90
2022-09-09T23:49:02.615Z,18.90
2022-09-09T23:51:31.508Z,18.90
2022-09-09T23:54:02.953Z,18.90
2022-09-09T23:56:40.379Z,18.90
2022-09-09T23:59:08.444Z,18.90
